sensor_id;sensor_type;location;lat;lon;timestamp;temperature;humidity
8400;DHT22;4237;47.030;15.396;2024-03-17T00:00:07;7.70;99.90
8400;DHT22;4237;47.030;15.396;2024-03-17T00:02:37;7.60;99.90
8400;DHT22;4237;47.030;15.396;2024-03-17T00:05:06;7.50;99.90
8400;DHT22;4237;47.030;15.396;2024-03-17T00:07:35;7.50;99.90
8400;DHT22;4237;47.030;15.396;2024-03-17T00:10:04;7.40;99.90
8400;DHT22;4237;47.030;15.396;2024-03-17T00:12:35;7.30;99.90
8400;DHT22;4237;47.030;15.396;2024-03-17T00:15:04;7.10;99.90
8400;DHT22;4237;47.030;15.396;2024-03-17T00:17:35;7.10;99.90
8400;DHT22;4237;47.030;15.396;2024-03-17T00:20:04;7.10;99.90
8400;DHT22;4237;47.030;15.396;2024-03-17T00:22:35;7.10;99.90
8400;DHT22;4237;47.030;15.396;2024-03-17T00:25:08;7.10;99.90
8400;DHT22;4237;47.030;15.396;2024-03-17T00:27:37;7.00;99.90
8400;DHT22;4237;47.030;15.396;2024-03-17T00:30:07;7.00;99.90
8400;DHT22;4237;47.030;15.396;2024-03-17T00:32:40;7.00;99.90
8400;DHT22;4237;47.030;15.396;2024-03-17T00:35:10;7.00;99.90
8400;DHT22;4237;47.030;15.396;2024-03-17T00:37:40;7.00;99.90
8400;DHT22;4237;47.030;15.396;2024-03-17T00:40:09;6.90;99.90
8400;DHT22;4237;47.030;15.396;2024-03-17T00:42:39;6.90;99.90
8400;DHT22;4237;47.030;15.396;2024-03-17T00:45:08;6.80;99.90
8400;DHT22;4237;47.030;15.396;2024-03-17T00:47:37;6.80;99.90
8400;DHT22;4237;47.030;15.396;2024-03-17T00:50:07;6.60;99.90
8400;DHT22;4237;47.030;15.396;2024-03-17T00:52:36;6.60;99.90
8400;DHT22;4237;47.030;15.396;2024-03-17T00:55:04;6.70;99.90
8400;DHT22;4237;47.030;15.396;2024-03-17T00:57:33;6.70;99.90
8400;DHT22;4237;47.030;15.396;2024-03-17T01:00:01;6.70;99.90
8400;DHT22;4237;47.030;15.396;2024-03-17T01:02:30;6.70;99.90
8400;DHT22;4237;47.030;15.396;2024-03-17T01:04:59;6.70;99.90
8400;DHT22;4237;47.030;15.396;2024-03-17T01:07:27;6.80;99.90
8400;DHT22;4237;47.030;15.396;2024-03-17T01:09:57;6.80;99.90
8400;DHT22;4237;47.030;15.396;2024-03-17T01:12:26;6.80;99.90
8400;DHT22;4237;47.030;15.396;2024-03-17T01:14:54;7.00;99.90
8400;DHT22;4237;47.030;15.396;2024-03-17T01:17:23;7.00;99.90
8400;DHT22;4237;47.030;15.396;2024-03-17T01:19:52;7.00;99.90
8400;DHT22;4237;47.030;15.396;2024-03-17T01:22:20;7.00;99.90
8400;DHT22;4237;47.030;15.396;2024-03-17T01:24:49;6.90;99.90
8400;DHT22;4237;47.030;15.396;2024-03-17T01:27:18;7.00;99.90
8400;DHT22;4237;47.030;15.396;2024-03-17T01:29:46;6.90;99.90
8400;DHT22;4237;47.030;15.396;2024-03-17T01:32:16;6.80;99.90
8400;DHT22;4237;47.030;15.396;2024-03-17T01:34:46;6.70;99.90
8400;DHT22;4237;47.030;15.396;2024-03-17T01:37:14;6.70;99.90
8400;DHT22;4237;47.030;15.396;2024-03-17T01:39:43;6.60;99.90
8400;DHT22;4237;47.030;15.396;2024-03-17T01:42:12;6.70;99.90
8400;DHT22;4237;47.030;15.396;2024-03-17T01:44:40;6.70;99.90
8400;DHT22;4237;47.030;15.396;2024-03-17T01:47:10;6.60;99.90
8400;DHT22;4237;47.030;15.396;2024-03-17T01:49:38;6.60;99.90
8400;DHT22;4237;47.030;15.396;2024-03-17T01:52:07;6.60;99.90
8400;DHT22;4237;47.030;15.396;2024-03-17T01:54:36;6.60;99.90
8400;DHT22;4237;47.030;15.396;2024-03-17T01:57:05;6.50;99.90
8400;DHT22;4237;47.030;15.396;2024-03-17T01:59:35;6.50;99.90
8400;DHT22;4237;47.030;15.396;2024-03-17T02:02:04;6.40;99.90
8400;DHT22;4237;47.030;15.396;2024-03-17T02:04:33;6.40;99.90
8400;DHT22;4237;47.030;15.396;2024-03-17T02:07:02;6.40;99.90
8400;DHT22;4237;47.030;15.396;2024-03-17T02:09:30;6.40;99.90
8400;DHT22;4237;47.030;15.396;2024-03-17T02:11:59;6.40;99.90
8400;DHT22;4237;47.030;15.396;2024-03-17T02:14:27;6.30;99.90
8400;DHT22;4237;47.030;15.396;2024-03-17T02:16:56;6.40;99.90
8400;DHT22;4237;47.030;15.396;2024-03-17T02:19:25;6.40;99.90
8400;DHT22;4237;47.030;15.396;2024-03-17T02:21:53;6.40;99.90
8400;DHT22;4237;47.030;15.396;2024-03-17T02:24:22;6.30;99.90
8400;DHT22;4237;47.030;15.396;2024-03-17T02:26:50;6.20;99.90
8400;DHT22;4237;47.030;15.396;2024-03-17T02:29:19;6.10;99.90
8400;DHT22;4237;47.030;15.396;2024-03-17T02:31:47;6.00;99.90
8400;DHT22;4237;47.030;15.396;2024-03-17T02:34:16;5.40;99.90
8400;DHT22;4237;47.030;15.396;2024-03-17T02:36:44;5.80;99.90
8400;DHT22;4237;47.030;15.396;2024-03-17T02:39:14;5.70;99.90
8400;DHT22;4237;47.030;15.396;2024-03-17T02:42:05;5.70;99.90
8400;DHT22;4237;47.030;15.396;2024-03-17T02:44:34;5.60;99.90
8400;DHT22;4237;47.030;15.396;2024-03-17T02:47:04;5.50;99.90
8400;DHT22;4237;47.030;15.396;2024-03-17T02:49:35;5.50;99.90
8400;DHT22;4237;47.030;15.396;2024-03-17T02:52:11;5.40;99.90
8400;DHT22;4237;47.030;15.396;2024-03-17T02:54:40;5.40;99.90
8400;DHT22;4237;47.030;15.396;2024-03-17T02:57:08;5.40;99.90
8400;DHT22;4237;47.030;15.396;2024-03-17T02:59:37;5.40;99.90
8400;DHT22;4237;47.030;15.396;2024-03-17T03:02:06;5.30;99.90
8400;DHT22;4237;47.030;15.396;2024-03-17T03:04:34;5.30;99.90
8400;DHT22;4237;47.030;15.396;2024-03-17T03:07:03;5.20;99.90
8400;DHT22;4237;47.030;15.396;2024-03-17T03:09:31;5.20;99.90
8400;DHT22;4237;47.030;15.396;2024-03-17T03:12:00;5.10;99.90
8400;DHT22;4237;47.030;15.396;2024-03-17T03:14:32;5.20;99.90
8400;DHT22;4237;47.030;15.396;2024-03-17T03:17:00;5.20;99.90
8400;DHT22;4237;47.030;15.396;2024-03-17T03:19:29;5.30;99.90
8400;DHT22;4237;47.030;15.396;2024-03-17T03:21:58;5.30;99.90
8400;DHT22;4237;47.030;15.396;2024-03-17T03:24:26;5.30;99.90
8400;DHT22;4237;47.030;15.396;2024-03-17T03:26:55;5.20;99.90
8400;DHT22;4237;47.030;15.396;2024-03-17T03:29:23;5.30;99.90
8400;DHT22;4237;47.030;15.396;2024-03-17T03:31:52;5.20;99.90
8400;DHT22;4237;47.030;15.396;2024-03-17T03:34:20;5.20;99.90
8400;DHT22;4237;47.030;15.396;2024-03-17T03:36:51;5.20;99.90
8400;DHT22;4237;47.030;15.396;2024-03-17T03:39:19;5.20;99.90
8400;DHT22;4237;47.030;15.396;2024-03-17T03:41:48;5.10;99.90
8400;DHT22;4237;47.030;15.396;2024-03-17T03:44:16;5.10;99.90
8400;DHT22;4237;47.030;15.396;2024-03-17T03:46:45;5.10;99.90
8400;DHT22;4237;47.030;15.396;2024-03-17T03:49:14;5.20;99.90
8400;DHT22;4237;47.030;15.396;2024-03-17T03:51:42;5.20;99.90
8400;DHT22;4237;47.030;15.396;2024-03-17T03:54:11;5.50;99.90
8400;DHT22;4237;47.030;15.396;2024-03-17T03:56:39;5.40;99.90
8400;DHT22;4237;47.030;15.396;2024-03-17T03:59:08;5.50;99.90
8400;DHT22;4237;47.030;15.396;2024-03-17T04:01:36;5.40;99.90
8400;DHT22;4237;47.030;15.396;2024-03-17T04:04:05;5.40;99.90
8400;DHT22;4237;47.030;15.396;2024-03-17T04:06:34;5.40;99.90
8400;DHT22;4237;47.030;15.396;2024-03-17T04:09:04;5.40;99.90
8400;DHT22;4237;47.030;15.396;2024-03-17T04:11:33;5.40;99.90
8400;DHT22;4237;47.030;15.396;2024-03-17T04:14:02;5.40;99.90
8400;DHT22;4237;47.030;15.396;2024-03-17T04:16:32;5.30;99.90
8400;DHT22;4237;47.030;15.396;2024-03-17T04:19:01;5.30;99.90
8400;DHT22;4237;47.030;15.396;2024-03-17T04:21:29;5.40;99.90
8400;DHT22;4237;47.030;15.396;2024-03-17T04:23:58;5.40;99.90
8400;DHT22;4237;47.030;15.396;2024-03-17T04:26:27;5.40;99.90
8400;DHT22;4237;47.030;15.396;2024-03-17T04:28:55;5.40;99.90
8400;DHT22;4237;47.030;15.396;2024-03-17T04:31:24;5.40;99.90
8400;DHT22;4237;47.030;15.396;2024-03-17T04:33:52;5.40;99.90
8400;DHT22;4237;47.030;15.396;2024-03-17T04:36:21;5.30;99.90
8400;DHT22;4237;47.030;15.396;2024-03-17T04:38:49;5.30;99.90
8400;DHT22;4237;47.030;15.396;2024-03-17T04:41:18;5.30;99.90
8400;DHT22;4237;47.030;15.396;2024-03-17T04:43:47;5.40;99.90
8400;DHT22;4237;47.030;15.396;2024-03-17T04:46:15;5.30;99.90
8400;DHT22;4237;47.030;15.396;2024-03-17T04:48:44;5.30;99.90
8400;DHT22;4237;47.030;15.396;2024-03-17T04:51:16;5.30;99.90
8400;DHT22;4237;47.030;15.396;2024-03-17T04:53:44;5.40;99.90
8400;DHT22;4237;47.030;15.396;2024-03-17T04:56:13;5.40;99.90
8400;DHT22;4237;47.030;15.396;2024-03-17T04:58:42;5.40;99.90
8400;DHT22;4237;47.030;15.396;2024-03-17T05:01:11;5.20;99.90
8400;DHT22;4237;47.030;15.396;2024-03-17T05:03:40;5.30;99.90
8400;DHT22;4237;47.030;15.396;2024-03-17T05:06:09;5.30;99.90
8400;DHT22;4237;47.030;15.396;2024-03-17T05:08:37;5.20;99.90
8400;DHT22;4237;47.030;15.396;2024-03-17T05:11:06;5.40;99.90
8400;DHT22;4237;47.030;15.396;2024-03-17T05:13:35;5.30;99.90
8400;DHT22;4237;47.030;15.396;2024-03-17T05:16:07;5.30;99.90
8400;DHT22;4237;47.030;15.396;2024-03-17T05:18:35;5.20;99.90
8400;DHT22;4237;47.030;15.396;2024-03-17T05:21:06;5.30;99.90
8400;DHT22;4237;47.030;15.396;2024-03-17T05:23:37;5.30;99.90
8400;DHT22;4237;47.030;15.396;2024-03-17T05:26:06;5.50;99.90
8400;DHT22;4237;47.030;15.396;2024-03-17T05:28:35;5.60;99.90
8400;DHT22;4237;47.030;15.396;2024-03-17T05:31:03;5.20;99.90
8400;DHT22;4237;47.030;15.396;2024-03-17T05:33:32;6.10;99.90
8400;DHT22;4237;47.030;15.396;2024-03-17T05:36:02;6.50;99.90
8400;DHT22;4237;47.030;15.396;2024-03-17T05:38:32;6.90;99.90
8400;DHT22;4237;47.030;15.396;2024-03-17T05:41:02;7.30;99.90
8400;DHT22;4237;47.030;15.396;2024-03-17T05:43:32;7.70;99.90
8400;DHT22;4237;47.030;15.396;2024-03-17T05:46:07;7.00;99.90
8400;DHT22;4237;47.030;15.396;2024-03-17T05:48:37;8.60;99.90
8400;DHT22;4237;47.030;15.396;2024-03-17T05:51:08;8.90;99.90
8400;DHT22;4237;47.030;15.396;2024-03-17T05:53:38;9.10;99.90
8400;DHT22;4237;47.030;15.396;2024-03-17T05:56:12;9.10;99.90
8400;DHT22;4237;47.030;15.396;2024-03-17T05:58:40;9.20;99.90
8400;DHT22;4237;47.030;15.396;2024-03-17T06:01:09;9.60;99.90
8400;DHT22;4237;47.030;15.396;2024-03-17T06:03:38;10.10;99.90
8400;DHT22;4237;47.030;15.396;2024-03-17T06:06:08;10.90;99.90
8400;DHT22;4237;47.030;15.396;2024-03-17T06:08:39;10.90;99.90
8400;DHT22;4237;47.030;15.396;2024-03-17T06:11:08;11.20;99.90
8400;DHT22;4237;47.030;15.396;2024-03-17T06:13:36;11.80;99.90
8400;DHT22;4237;47.030;15.396;2024-03-17T06:16:05;12.10;99.90
8400;DHT22;4237;47.030;15.396;2024-03-17T06:18:34;12.60;99.90
8400;DHT22;4237;47.030;15.396;2024-03-17T06:21:04;12.90;99.90
8400;DHT22;4237;47.030;15.396;2024-03-17T06:23:33;12.70;99.90
8400;DHT22;4237;47.030;15.396;2024-03-17T06:26:01;13.60;99.90
8400;DHT22;4237;47.030;15.396;2024-03-17T06:28:32;14.40;99.90
8400;DHT22;4237;47.030;15.396;2024-03-17T06:31:00;15.50;99.90
8400;DHT22;4237;47.030;15.396;2024-03-17T06:33:30;15.10;99.90
8400;DHT22;4237;47.030;15.396;2024-03-17T06:36:07;15.20;99.90
8400;DHT22;4237;47.030;15.396;2024-03-17T06:38:33;14.80;99.90
8400;DHT22;4237;47.030;15.396;2024-03-17T06:41:02;14.40;99.90
8400;DHT22;4237;47.030;15.396;2024-03-17T06:43:30;14.80;99.90
8400;DHT22;4237;47.030;15.396;2024-03-17T06:46:00;15.60;99.90
8400;DHT22;4237;47.030;15.396;2024-03-17T06:48:29;16.00;99.90
8400;DHT22;4237;47.030;15.396;2024-03-17T06:50:58;15.90;99.90
8400;DHT22;4237;47.030;15.396;2024-03-17T06:53:26;17.60;99.90
8400;DHT22;4237;47.030;15.396;2024-03-17T06:55:57;18.40;99.90
8400;DHT22;4237;47.030;15.396;2024-03-17T06:58:27;18.90;99.90
8400;DHT22;4237;47.030;15.396;2024-03-17T07:01:00;19.30;99.90
8400;DHT22;4237;47.030;15.396;2024-03-17T07:03:31;18.70;99.90
8400;DHT22;4237;47.030;15.396;2024-03-17T07:06:01;18.70;99.90
8400;DHT22;4237;47.030;15.396;2024-03-17T07:08:34;17.30;99.90
8400;DHT22;4237;47.030;15.396;2024-03-17T07:11:04;16.30;99.90
8400;DHT22;4237;47.030;15.396;2024-03-17T07:13:35;15.80;99.90
8400;DHT22;4237;47.030;15.396;2024-03-17T07:16:05;15.70;99.90
8400;DHT22;4237;47.030;15.396;2024-03-17T07:18:34;16.50;99.90
8400;DHT22;4237;47.030;15.396;2024-03-17T07:21:04;17.90;99.90
8400;DHT22;4237;47.030;15.396;2024-03-17T07:23:33;19.70;99.90
8400;DHT22;4237;47.030;15.396;2024-03-17T07:26:02;20.20;99.90
8400;DHT22;4237;47.030;15.396;2024-03-17T07:28:32;21.00;99.90
8400;DHT22;4237;47.030;15.396;2024-03-17T07:31:00;21.10;99.90
8400;DHT22;4237;47.030;15.396;2024-03-17T07:33:29;20.40;99.90
8400;DHT22;4237;47.030;15.396;2024-03-17T07:35:58;19.50;99.90
8400;DHT22;4237;47.030;15.396;2024-03-17T07:38:32;19.90;99.90
8400;DHT22;4237;47.030;15.396;2024-03-17T07:41:03;19.50;99.90
8400;DHT22;4237;47.030;15.396;2024-03-17T07:43:35;19.90;99.90
8400;DHT22;4237;47.030;15.396;2024-03-17T07:46:05;20.60;99.90
8400;DHT22;4237;47.030;15.396;2024-03-17T07:48:35;21.20;99.90
8400;DHT22;4237;47.030;15.396;2024-03-17T07:51:07;20.60;99.90
8400;DHT22;4237;47.030;15.396;2024-03-17T07:53:37;20.10;99.90
8400;DHT22;4237;47.030;15.396;2024-03-17T07:56:10;19.90;99.90
8400;DHT22;4237;47.030;15.396;2024-03-17T07:58:40;20.00;99.90
8400;DHT22;4237;47.030;15.396;2024-03-17T08:01:11;19.10;99.90
8400;DHT22;4237;47.030;15.396;2024-03-17T08:03:41;19.80;99.90
8400;DHT22;4237;47.030;15.396;2024-03-17T08:06:13;21.20;99.90
8400;DHT22;4237;47.030;15.396;2024-03-17T08:08:42;23.10;99.90
8400;DHT22;4237;47.030;15.396;2024-03-17T08:11:10;23.80;99.90
8400;DHT22;4237;47.030;15.396;2024-03-17T08:13:39;25.50;99.90
8400;DHT22;4237;47.030;15.396;2024-03-17T08:16:08;25.80;99.90
8400;DHT22;4237;47.030;15.396;2024-03-17T08:18:37;24.60;99.90
8400;DHT22;4237;47.030;15.396;2024-03-17T08:21:05;25.30;99.90
8400;DHT22;4237;47.030;15.396;2024-03-17T08:23:34;26.30;99.90
8400;DHT22;4237;47.030;15.396;2024-03-17T08:26:13;26.70;99.90
8400;DHT22;4237;47.030;15.396;2024-03-17T08:28:42;27.50;97.60
8400;DHT22;4237;47.030;15.396;2024-03-17T08:31:11;27.80;97.10
8400;DHT22;4237;47.030;15.396;2024-03-17T08:33:40;27.60;96.30
8400;DHT22;4237;47.030;15.396;2024-03-17T08:36:09;27.50;95.40
8400;DHT22;4237;47.030;15.396;2024-03-17T08:38:38;27.30;98.10
8400;DHT22;4237;47.030;15.396;2024-03-17T08:41:08;26.20;99.90
8400;DHT22;4237;47.030;15.396;2024-03-17T08:43:37;25.20;99.90
8400;DHT22;4237;47.030;15.396;2024-03-17T08:46:09;23.80;99.90
8400;DHT22;4237;47.030;15.396;2024-03-17T08:48:40;22.50;99.90
8400;DHT22;4237;47.030;15.396;2024-03-17T08:51:09;22.80;99.90
8400;DHT22;4237;47.030;15.396;2024-03-17T08:53:38;23.10;99.90
8400;DHT22;4237;47.030;15.396;2024-03-17T08:56:07;23.40;99.90
8400;DHT22;4237;47.030;15.396;2024-03-17T08:58:35;23.60;99.90
8400;DHT22;4237;47.030;15.396;2024-03-17T09:01:08;24.20;99.90
8400;DHT22;4237;47.030;15.396;2024-03-17T09:03:36;23.60;99.90
8400;DHT22;4237;47.030;15.396;2024-03-17T09:06:12;22.60;99.90
8400;DHT22;4237;47.030;15.396;2024-03-17T09:08:35;22.90;99.90
8400;DHT22;4237;47.030;15.396;2024-03-17T09:11:06;23.90;99.90
8400;DHT22;4237;47.030;15.396;2024-03-17T09:13:33;24.20;99.90
8400;DHT22;4237;47.030;15.396;2024-03-17T09:16:03;22.10;99.90
8400;DHT22;4237;47.030;15.396;2024-03-17T09:18:33;22.00;99.90
8400;DHT22;4237;47.030;15.396;2024-03-17T09:21:04;21.10;99.90
8400;DHT22;4237;47.030;15.396;2024-03-17T09:23:33;21.30;99.90
8400;DHT22;4237;47.030;15.396;2024-03-17T09:26:06;22.10;99.90
8400;DHT22;4237;47.030;15.396;2024-03-17T09:28:40;22.80;99.90
8400;DHT22;4237;47.030;15.396;2024-03-17T09:31:08;21.70;99.90
8400;DHT22;4237;47.030;15.396;2024-03-17T09:33:38;20.40;99.90
8400;DHT22;4237;47.030;15.396;2024-03-17T09:36:08;19.60;99.90
8400;DHT22;4237;47.030;15.396;2024-03-17T09:38:41;20.10;99.90
8400;DHT22;4237;47.030;15.396;2024-03-17T09:41:22;20.00;99.90
8400;DHT22;4237;47.030;15.396;2024-03-17T09:43:57;20.30;99.90
8400;DHT22;4237;47.030;15.396;2024-03-17T09:46:27;21.50;99.90
8400;DHT22;4237;47.030;15.396;2024-03-17T09:48:56;21.30;99.90
8400;DHT22;4237;47.030;15.396;2024-03-17T09:51:25;21.90;99.90
8400;DHT22;4237;47.030;15.396;2024-03-17T09:53:54;21.00;99.90
8400;DHT22;4237;47.030;15.396;2024-03-17T09:56:23;21.40;99.90
8400;DHT22;4237;47.030;15.396;2024-03-17T09:58:52;22.50;99.90
8400;DHT22;4237;47.030;15.396;2024-03-17T10:01:20;23.50;99.90
8400;DHT22;4237;47.030;15.396;2024-03-17T10:06:23;23.50;99.90
8400;DHT22;4237;47.030;15.396;2024-03-17T10:08:56;22.20;99.90
8400;DHT22;4237;47.030;15.396;2024-03-17T10:11:37;22.70;99.90
8400;DHT22;4237;47.030;15.396;2024-03-17T10:14:08;23.10;99.90
8400;DHT22;4237;47.030;15.396;2024-03-17T10:16:37;22.70;99.90
8400;DHT22;4237;47.030;15.396;2024-03-17T10:21:39;22.40;99.90
8400;DHT22;4237;47.030;15.396;2024-03-17T10:24:28;22.50;99.90
8400;DHT22;4237;47.030;15.396;2024-03-17T10:26:43;22.00;99.90
8400;DHT22;4237;47.030;15.396;2024-03-17T10:29:33;23.10;99.90
8400;DHT22;4237;47.030;15.396;2024-03-17T10:32:12;24.10;99.90
8400;DHT22;4237;47.030;15.396;2024-03-17T10:34:34;24.10;99.90
8400;DHT22;4237;47.030;15.396;2024-03-17T10:37:17;24.10;99.90
8400;DHT22;4237;47.030;15.396;2024-03-17T10:39:54;23.00;99.90
8400;DHT22;4237;47.030;15.396;2024-03-17T10:42:27;22.60;99.90
8400;DHT22;4237;47.030;15.396;2024-03-17T10:45:06;23.40;99.90
8400;DHT22;4237;47.030;15.396;2024-03-17T10:47:35;22.00;99.90
8400;DHT22;4237;47.030;15.396;2024-03-17T10:50:06;22.10;99.90
8400;DHT22;4237;47.030;15.396;2024-03-17T10:52:37;21.50;99.90
8400;DHT22;4237;47.030;15.396;2024-03-17T10:55:11;21.60;99.90
8400;DHT22;4237;47.030;15.396;2024-03-17T10:57:47;21.20;99.90
8400;DHT22;4237;47.030;15.396;2024-03-17T11:00:19;20.90;99.90
8400;DHT22;4237;47.030;15.396;2024-03-17T11:02:51;22.70;99.90
8400;DHT22;4237;47.030;15.396;2024-03-17T11:05:27;23.30;99.50
8400;DHT22;4237;47.030;15.396;2024-03-17T11:07:53;21.90;99.90
8400;DHT22;4237;47.030;15.396;2024-03-17T11:13:03;23.70;99.80
8400;DHT22;4237;47.030;15.396;2024-03-17T11:15:36;23.50;99.90
8400;DHT22;4237;47.030;15.396;2024-03-17T11:20:43;25.80;98.30
8400;DHT22;4237;47.030;15.396;2024-03-17T11:23:22;27.10;96.50
8400;DHT22;4237;47.030;15.396;2024-03-17T11:25:49;25.10;96.10
8400;DHT22;4237;47.030;15.396;2024-03-17T11:28:43;24.40;98.30
8400;DHT22;4237;47.030;15.396;2024-03-17T11:30:50;25.70;95.70
8400;DHT22;4237;47.030;15.396;2024-03-17T11:41:39;23.90;96.10
8400;DHT22;4237;47.030;15.396;2024-03-17T11:44:25;24.00;97.20
8400;DHT22;4237;47.030;15.396;2024-03-17T11:47:01;24.80;96.00
8400;DHT22;4237;47.030;15.396;2024-03-17T11:49:35;24.70;94.80
8400;DHT22;4237;47.030;15.396;2024-03-17T11:52:14;24.20;95.70
8400;DHT22;4237;47.030;15.396;2024-03-17T11:54:44;23.90;96.40
8400;DHT22;4237;47.030;15.396;2024-03-17T11:57:24;25.50;95.60
8400;DHT22;4237;47.030;15.396;2024-03-17T11:59:45;25.60;95.10
8400;DHT22;4237;47.030;15.396;2024-03-17T12:02:25;25.20;95.10
8400;DHT22;4237;47.030;15.396;2024-03-17T12:05:00;25.90;94.50
8400;DHT22;4237;47.030;15.396;2024-03-17T12:07:29;27.20;93.20
8400;DHT22;4237;47.030;15.396;2024-03-17T12:09:58;27.00;94.00
8400;DHT22;4237;47.030;15.396;2024-03-17T12:12:28;26.70;93.40
8400;DHT22;4237;47.030;15.396;2024-03-17T12:14:58;26.10;93.70
8400;DHT22;4237;47.030;15.396;2024-03-17T12:17:26;26.30;94.40
8400;DHT22;4237;47.030;15.396;2024-03-17T12:19:55;27.00;93.90
8400;DHT22;4237;47.030;15.396;2024-03-17T12:22:24;25.90;94.10
8400;DHT22;4237;47.030;15.396;2024-03-17T12:24:57;25.10;95.90
8400;DHT22;4237;47.030;15.396;2024-03-17T12:27:27;26.40;94.50
8400;DHT22;4237;47.030;15.396;2024-03-17T12:29:55;26.50;93.40
8400;DHT22;4237;47.030;15.396;2024-03-17T12:32:25;24.40;95.40
8400;DHT22;4237;47.030;15.396;2024-03-17T12:34:57;23.60;95.40
8400;DHT22;4237;47.030;15.396;2024-03-17T12:37:27;24.80;94.70
8400;DHT22;4237;47.030;15.396;2024-03-17T12:40:02;24.00;95.30
8400;DHT22;4237;47.030;15.396;2024-03-17T12:42:31;25.10;94.80
8400;DHT22;4237;47.030;15.396;2024-03-17T12:45:00;25.30;94.30
8400;DHT22;4237;47.030;15.396;2024-03-17T12:47:31;24.50;94.60
8400;DHT22;4237;47.030;15.396;2024-03-17T12:50:00;24.40;94.30
8400;DHT22;4237;47.030;15.396;2024-03-17T12:52:34;24.90;94.70
8400;DHT22;4237;47.030;15.396;2024-03-17T12:55:08;24.70;94.80
8400;DHT22;4237;47.030;15.396;2024-03-17T12:58:05;24.70;94.40
8400;DHT22;4237;47.030;15.396;2024-03-17T13:01:05;25.00;94.80
8400;DHT22;4237;47.030;15.396;2024-03-17T13:03:36;24.70;94.70
8400;DHT22;4237;47.030;15.396;2024-03-17T13:06:09;23.50;95.10
8400;DHT22;4237;47.030;15.396;2024-03-17T13:08:37;23.60;96.20
8400;DHT22;4237;47.030;15.396;2024-03-17T13:11:09;27.10;93.60
8400;DHT22;4237;47.030;15.396;2024-03-17T13:13:37;26.70;92.80
8400;DHT22;4237;47.030;15.396;2024-03-17T13:16:06;25.90;93.10
8400;DHT22;4237;47.030;15.396;2024-03-17T13:18:36;27.20;92.50
8400;DHT22;4237;47.030;15.396;2024-03-17T13:21:04;28.40;92.40
8400;DHT22;4237;47.030;15.396;2024-03-17T13:23:33;27.60;92.00
8400;DHT22;4237;47.030;15.396;2024-03-17T13:26:02;27.20;92.70
8400;DHT22;4237;47.030;15.396;2024-03-17T13:28:31;28.20;92.30
8400;DHT22;4237;47.030;15.396;2024-03-17T13:30:59;27.20;91.80
8400;DHT22;4237;47.030;15.396;2024-03-17T13:33:28;24.70;93.70
8400;DHT22;4237;47.030;15.396;2024-03-17T13:35:57;22.50;95.50
8400;DHT22;4237;47.030;15.396;2024-03-17T13:38:25;22.30;97.10
8400;DHT22;4237;47.030;15.396;2024-03-17T13:40:55;24.40;95.80
8400;DHT22;4237;47.030;15.396;2024-03-17T13:43:24;25.20;95.00
8400;DHT22;4237;47.030;15.396;2024-03-17T13:45:52;25.10;95.30
8400;DHT22;4237;47.030;15.396;2024-03-17T13:48:21;26.60;94.30
8400;DHT22;4237;47.030;15.396;2024-03-17T13:50:49;26.80;93.50
8400;DHT22;4237;47.030;15.396;2024-03-17T13:53:18;26.80;93.60
8400;DHT22;4237;47.030;15.396;2024-03-17T13:55:46;23.90;95.90
8400;DHT22;4237;47.030;15.396;2024-03-17T13:58:15;22.80;97.80
8400;DHT22;4237;47.030;15.396;2024-03-17T14:00:43;23.60;98.20
8400;DHT22;4237;47.030;15.396;2024-03-17T14:03:13;24.40;97.50
8400;DHT22;4237;47.030;15.396;2024-03-17T14:05:41;24.90;96.90
8400;DHT22;4237;47.030;15.396;2024-03-17T14:08:10;24.80;97.60
8400;DHT22;4237;47.030;15.396;2024-03-17T14:10:38;24.00;97.40
8400;DHT22;4237;47.030;15.396;2024-03-17T14:13:07;21.80;99.90
8400;DHT22;4237;47.030;15.396;2024-03-17T14:15:36;22.80;99.80
8400;DHT22;4237;47.030;15.396;2024-03-17T14:18:05;23.30;99.20
8400;DHT22;4237;47.030;15.396;2024-03-17T14:20:34;23.70;98.20
8400;DHT22;4237;47.030;15.396;2024-03-17T14:23:04;22.30;99.10
8400;DHT22;4237;47.030;15.396;2024-03-17T14:25:33;21.20;99.90
8400;DHT22;4237;47.030;15.396;2024-03-17T14:28:01;21.60;99.90
8400;DHT22;4237;47.030;15.396;2024-03-17T14:30:31;24.10;99.10
8400;DHT22;4237;47.030;15.396;2024-03-17T14:33:00;24.00;98.60
8400;DHT22;4237;47.030;15.396;2024-03-17T14:35:32;23.90;98.70
8400;DHT22;4237;47.030;15.396;2024-03-17T14:38:01;23.50;98.10
8400;DHT22;4237;47.030;15.396;2024-03-17T14:40:29;21.20;99.90
8400;DHT22;4237;47.030;15.396;2024-03-17T14:42:58;19.80;99.90
8400;DHT22;4237;47.030;15.396;2024-03-17T14:45:26;18.60;99.90
8400;DHT22;4237;47.030;15.396;2024-03-17T14:47:56;18.20;99.90
8400;DHT22;4237;47.030;15.396;2024-03-17T14:50:24;17.60;99.90
8400;DHT22;4237;47.030;15.396;2024-03-17T14:52:53;18.40;99.90
8400;DHT22;4237;47.030;15.396;2024-03-17T14:55:21;19.30;99.90
8400;DHT22;4237;47.030;15.396;2024-03-17T14:57:50;19.80;99.90
8400;DHT22;4237;47.030;15.396;2024-03-17T15:00:18;20.90;99.90
8400;DHT22;4237;47.030;15.396;2024-03-17T15:02:49;20.80;99.90
8400;DHT22;4237;47.030;15.396;2024-03-17T15:05:18;20.30;99.90
8400;DHT22;4237;47.030;15.396;2024-03-17T15:07:47;19.40;99.90
8400;DHT22;4237;47.030;15.396;2024-03-17T15:10:18;18.50;99.90
8400;DHT22;4237;47.030;15.396;2024-03-17T15:12:49;18.30;99.90
8400;DHT22;4237;47.030;15.396;2024-03-17T15:15:18;18.50;99.90
8400;DHT22;4237;47.030;15.396;2024-03-17T15:17:47;19.20;99.90
8400;DHT22;4237;47.030;15.396;2024-03-17T15:20:17;19.90;99.90
8400;DHT22;4237;47.030;15.396;2024-03-17T15:22:48;20.30;99.90
8400;DHT22;4237;47.030;15.396;2024-03-17T15:25:17;20.80;99.90
8400;DHT22;4237;47.030;15.396;2024-03-17T15:27:47;21.20;99.90
8400;DHT22;4237;47.030;15.396;2024-03-17T15:30:16;21.20;99.90
8400;DHT22;4237;47.030;15.396;2024-03-17T15:32:50;20.70;99.90
8400;DHT22;4237;47.030;15.396;2024-03-17T15:35:23;19.70;99.90
8400;DHT22;4237;47.030;15.396;2024-03-17T15:37:52;18.90;99.90
8400;DHT22;4237;47.030;15.396;2024-03-17T15:40:20;18.40;99.90
8400;DHT22;4237;47.030;15.396;2024-03-17T15:42:50;17.90;99.90
8400;DHT22;4237;47.030;15.396;2024-03-17T15:45:19;18.20;99.90
8400;DHT22;4237;47.030;15.396;2024-03-17T15:47:48;18.20;99.90
8400;DHT22;4237;47.030;15.396;2024-03-17T15:50:16;18.00;99.90
8400;DHT22;4237;47.030;15.396;2024-03-17T15:52:45;18.00;99.90
8400;DHT22;4237;47.030;15.396;2024-03-17T15:55:14;17.80;99.90
8400;DHT22;4237;47.030;15.396;2024-03-17T15:57:43;17.40;99.90
8400;DHT22;4237;47.030;15.396;2024-03-17T16:00:12;16.90;99.90
8400;DHT22;4237;47.030;15.396;2024-03-17T16:02:47;16.60;99.90
8400;DHT22;4237;47.030;15.396;2024-03-17T16:05:14;16.40;99.90
8400;DHT22;4237;47.030;15.396;2024-03-17T16:07:44;16.20;99.90
8400;DHT22;4237;47.030;15.396;2024-03-17T16:10:16;15.90;99.90
8400;DHT22;4237;47.030;15.396;2024-03-17T16:12:44;15.70;99.90
8400;DHT22;4237;47.030;15.396;2024-03-17T16:15:13;15.70;99.90
8400;DHT22;4237;47.030;15.396;2024-03-17T16:17:42;15.60;99.90
8400;DHT22;4237;47.030;15.396;2024-03-17T16:20:18;15.70;99.90
8400;DHT22;4237;47.030;15.396;2024-03-17T16:22:43;15.60;99.90
8400;DHT22;4237;47.030;15.396;2024-03-17T16:25:13;15.60;99.90
8400;DHT22;4237;47.030;15.396;2024-03-17T16:27:41;15.40;99.90